createdAt,value
2018-12-11T00:00:43.339Z,100544.70
2018-12-11T00:03:15.953Z,100548.10
2018-12-11T00:05:48.511Z,100548.16
2018-12-11T00:08:21.130Z,100549.41
2018-12-11T00:10:54.251Z,100551.14
2018-12-11T00:13:28.080Z,100547.71
2018-12-11T00:16:00.715Z,100544.31
2018-12-11T00:18:33.449Z,100542.24
2018-12-11T00:21:06.198Z,100545.98
2018-12-11T00:23:39.415Z,100546.88
2018-12-11T00:26:11.977Z,100551.52
2018-12-11T00:28:44.622Z,100545.15
2018-12-11T00:31:17.431Z,100552.80
2018-12-11T00:33:50.029Z,100551.95
2018-12-11T00:36:22.596Z,100550.75
2018-12-11T00:38:55.215Z,100545.64
2018-12-11T00:41:27.856Z,100549.83
2018-12-11T00:44:00.628Z,100544.44
2018-12-11T00:46:33.676Z,100543.17
2018-12-11T00:49:06.300Z,100550.32
2018-12-11T00:51:38.888Z,100552.34
2018-12-11T00:54:11.514Z,100548.15
2018-12-11T00:56:44.229Z,100545.63
2018-12-11T00:59:16.801Z,100549.41
2018-12-11T01:01:49.341Z,100549.83
2018-12-11T01:04:21.960Z,100555.68
2018-12-11T01:06:54.555Z,100547.28
2018-12-11T01:09:27.242Z,100554.43
2018-12-11T01:11:59.804Z,100555.30
2018-12-11T01:14:32.387Z,100549.88
2018-12-11T01:17:04.985Z,100562.03
2018-12-11T01:19:37.641Z,100568.83
2018-12-11T01:22:11.376Z,100565.87
2018-12-11T01:24:44.150Z,100571.81
2018-12-11T01:27:16.868Z,100572.63
2018-12-11T01:29:49.558Z,100564.64
2018-12-11T01:32:22.243Z,100576.09
2018-12-11T01:34:54.828Z,100571.04
2018-12-11T01:37:27.378Z,100570.72
2018-12-11T01:40:00.069Z,100572.39
2018-12-11T01:42:32.634Z,100575.38
2018-12-11T01:45:05.680Z,100579.56
2018-12-11T01:47:38.258Z,100581.63
2018-12-11T01:50:10.975Z,100584.11
2018-12-11T01:52:43.577Z,100588.75
2018-12-11T01:55:16.250Z,100592.98
2018-12-11T01:57:48.804Z,100594.20
2018-12-11T02:00:23.467Z,100587.94
2018-12-11T02:02:56.029Z,100596.80
2018-12-11T02:05:28.622Z,100587.13
2018-12-11T02:08:01.176Z,100591.37
2018-12-11T02:10:33.770Z,100600.72
2018-12-11T02:13:06.313Z,100599.45
2018-12-11T02:15:38.909Z,100600.33
2018-12-11T02:18:11.466Z,100596.53
2018-12-11T02:20:44.102Z,100589.43
2018-12-11T02:23:16.649Z,100596.17
2018-12-11T02:25:49.305Z,100602.93
2018-12-11T02:28:21.838Z,100590.73
2018-12-11T02:30:54.519Z,100601.33
2018-12-11T02:33:27.074Z,100603.47
2018-12-11T02:35:59.632Z,100609.00
2018-12-11T02:38:32.229Z,100611.09
2018-12-11T02:41:05.025Z,100611.52
2018-12-11T02:43:37.576Z,100598.83
2018-12-11T02:46:10.171Z,100597.11
2018-12-11T02:48:42.705Z,100595.92
2018-12-11T02:51:15.329Z,100590.90
2018-12-11T02:53:47.907Z,100593.03
2018-12-11T02:56:20.500Z,100599.36
2018-12-11T02:58:53.114Z,100597.66
2018-12-11T03:01:25.839Z,100598.09
2018-12-11T03:03:58.375Z,100594.70
2018-12-11T03:06:30.928Z,100598.94
2018-12-11T03:09:05.256Z,100598.94
2018-12-11T03:11:37.801Z,100595.56
2018-12-11T03:14:10.322Z,100603.17
2018-12-11T03:16:42.967Z,100600.20
2018-12-11T03:19:15.493Z,100605.72
2018-12-11T03:21:48.148Z,100610.37
2018-12-11T03:24:20.739Z,100612.48
2018-12-11T03:26:53.290Z,100607.42
2018-12-11T03:29:25.862Z,100614.18
2018-12-11T03:31:58.576Z,100609.53
2018-12-11T03:34:31.110Z,100608.25
2018-12-11T03:37:03.789Z,100607.80
2018-12-11T03:39:36.549Z,100608.23
2018-12-11T03:42:09.189Z,100602.75
2018-12-11T03:44:41.749Z,100613.33
2018-12-11T03:47:14.386Z,100615.45
2018-12-11T03:49:46.937Z,100618.84
2018-12-11T03:52:21.606Z,100620.53
2018-12-11T03:54:54.090Z,100631.53
2018-12-11T03:57:26.658Z,100622.67
2018-12-11T03:59:59.203Z,100623.09
2018-12-11T04:02:31.792Z,100634.09
2018-12-11T04:05:05.390Z,100630.27
2018-12-11T04:07:37.940Z,100634.95
2018-12-11T04:10:10.462Z,100629.84
2018-12-11T04:12:43.136Z,100643.78
2018-12-11T04:15:15.657Z,100637.45
2018-12-11T04:17:48.219Z,100639.98
2018-12-11T04:20:20.750Z,100637.48
2018-12-11T04:22:53.307Z,100631.98
2018-12-11T04:25:25.855Z,100644.27
2018-12-11T04:27:58.531Z,100640.46
2018-12-11T04:30:31.079Z,100643.41
2018-12-11T04:33:03.701Z,100642.98
2018-12-11T04:35:36.239Z,100651.45
2018-12-11T04:38:08.781Z,100649.33
2018-12-11T04:40:41.309Z,100653.55
2018-12-11T04:43:13.954Z,100653.99
2018-12-11T04:45:46.498Z,100661.61
2018-12-11T04:48:19.161Z,100666.69
2018-12-11T04:50:51.701Z,100673.45
2018-12-11T04:53:24.363Z,100669.22
2018-12-11T04:55:56.889Z,100668.80
2018-12-11T04:58:29.450Z,100673.45
2018-12-11T05:01:01.991Z,100670.48
2018-12-11T05:03:34.657Z,100677.69
2018-12-11T05:06:07.209Z,100678.53
2018-12-11T05:08:39.966Z,100680.66
2018-12-11T05:11:12.504Z,100678.96
2018-12-11T05:13:45.038Z,100689.09
2018-12-11T05:16:17.606Z,100685.31
2018-12-11T05:18:50.204Z,100683.19
2018-12-11T05:21:22.781Z,100686.14
2018-12-11T05:23:55.342Z,100683.61
2018-12-11T05:26:27.887Z,100695.00
2018-12-11T05:29:00.433Z,100688.25
2018-12-11T05:31:33.006Z,100697.58
2018-12-11T05:34:05.754Z,100698.83
2018-12-11T05:36:38.288Z,100697.58
2018-12-11T05:39:10.983Z,100703.08
2018-12-11T05:41:43.548Z,100705.59
2018-12-11T05:44:16.176Z,100710.27
2018-12-11T05:46:48.710Z,100709.84
2018-12-11T05:49:21.345Z,100714.91
2018-12-11T05:51:53.871Z,100716.20
2018-12-11T05:54:26.453Z,100713.22
2018-12-11T05:56:58.991Z,100716.62
2018-12-11T05:59:31.733Z,100720.00
2018-12-11T06:02:04.334Z,100724.22
2018-12-11T06:04:36.939Z,100725.49
2018-12-11T06:07:09.487Z,100722.95
2018-12-11T06:09:43.098Z,100718.73
2018-12-11T06:12:15.690Z,100725.05
2018-12-11T06:14:48.498Z,100727.59
2018-12-11T06:17:21.473Z,100723.38
2018-12-11T06:19:54.286Z,100729.71
2018-12-11T06:22:27.274Z,100729.72
2018-12-11T06:25:00.159Z,100730.14
2018-12-11T06:27:33.178Z,100736.02
2018-12-11T06:30:08.127Z,100737.72
2018-12-11T06:32:41.224Z,100739.39
2018-12-11T06:35:13.964Z,100744.89
2018-12-11T06:37:47.619Z,100742.38
2018-12-11T06:40:20.252Z,100748.70
2018-12-11T06:42:53.913Z,100747.87
2018-12-11T06:45:26.603Z,100749.56
2018-12-11T06:47:59.143Z,100756.31
2018-12-11T06:50:31.752Z,100758.86
2018-12-11T06:53:04.277Z,100755.45
2018-12-11T06:55:36.847Z,100767.69
2018-12-11T06:58:09.434Z,100763.50
2018-12-11T07:00:42.554Z,100772.37
2018-12-11T07:03:15.131Z,100776.55
2018-12-11T07:05:47.756Z,100778.66
2018-12-11T07:08:20.321Z,100789.66
2018-12-11T07:10:52.991Z,100786.70
2018-12-11T07:13:25.527Z,100789.63
2018-12-11T07:15:58.136Z,100793.86
2018-12-11T07:18:31.142Z,100796.82
2018-12-11T07:21:03.907Z,100803.58
2018-12-11T07:23:36.468Z,100805.68
2018-12-11T07:26:09.043Z,100802.28
2018-12-11T07:28:41.635Z,100808.22
2018-12-11T07:31:14.312Z,100806.52
2018-12-11T07:33:50.890Z,100813.69
2018-12-11T07:36:21.548Z,100815.81
2018-12-11T07:38:54.080Z,100808.62
2018-12-11T07:41:26.739Z,100811.98
2018-12-11T07:43:59.274Z,100825.53
2018-12-11T07:46:31.848Z,100822.56
2018-12-11T07:49:04.381Z,100817.92
2018-12-11T07:51:37.019Z,100824.21
2018-12-11T07:54:09.586Z,100824.23
2018-12-11T07:56:42.229Z,100820.03
2018-12-11T07:59:14.766Z,100822.12
2018-12-11T08:01:47.436Z,100819.60
2018-12-11T08:04:19.976Z,100828.05
2018-12-11T08:06:52.537Z,100828.08
2018-12-11T08:09:25.062Z,100829.33
2018-12-11T08:11:57.896Z,100827.70
2018-12-11T08:14:30.421Z,100830.61
2018-12-11T08:17:03.074Z,100839.55
2018-12-11T08:19:35.603Z,100848.86
2018-12-11T08:22:08.236Z,100850.14
2018-12-11T08:24:40.766Z,100853.53
2018-12-11T08:27:13.347Z,100857.33
2018-12-11T08:29:46.039Z,100852.24
2018-12-11T08:32:18.604Z,100864.53
2018-12-11T08:34:52.551Z,100861.98
2018-12-11T08:37:25.252Z,100867.89
2018-12-11T08:39:57.784Z,100866.63
2018-12-11T08:42:30.415Z,100868.77
2018-12-11T08:45:03.109Z,100873.86
2018-12-11T08:47:35.754Z,100870.06
2018-12-11T08:50:08.288Z,100879.77
2018-12-11T08:52:40.867Z,100884.00
2018-12-11T08:55:13.390Z,100886.97
2018-12-11T08:57:45.975Z,100887.42
2018-12-11T09:00:18.525Z,100887.02
2018-12-11T09:02:51.385Z,100893.38
2018-12-11T09:05:23.939Z,100895.05
2018-12-11T09:07:56.602Z,100898.02
2018-12-11T09:10:29.249Z,100897.17
2018-12-11T09:13:02.163Z,100887.47
2018-12-11T09:15:34.717Z,100887.04
2018-12-11T09:18:07.287Z,100888.30
2018-12-11T09:20:39.824Z,100895.92
2018-12-11T09:23:12.492Z,100897.18
2018-12-11T09:25:45.025Z,100903.95
2018-12-11T09:28:17.671Z,100897.62
2018-12-11T09:30:50.209Z,100902.28
2018-12-11T09:33:22.850Z,100902.69
2018-12-11T09:35:55.386Z,100908.20
2018-12-11T09:38:28.154Z,100911.59
2018-12-11T09:41:00.711Z,100913.69
2018-12-11T09:43:33.298Z,100917.50
2018-12-11T09:46:05.836Z,100913.68
2018-12-11T09:48:38.410Z,100916.66
2018-12-11T09:51:17.637Z,100919.20
2018-12-11T09:53:45.899Z,100904.79
2018-12-11T09:56:18.453Z,100911.55
2018-12-11T09:58:51.134Z,100917.05
2018-12-11T10:01:23.662Z,100910.25
2018-12-11T10:03:56.332Z,100912.80
2018-12-11T10:06:28.926Z,100908.56
2018-12-11T10:09:04.439Z,100903.50
2018-12-11T10:11:36.979Z,100915.36
2018-12-11T10:14:09.541Z,100910.68
2018-12-11T10:16:42.091Z,100920.78
2018-12-11T10:19:14.667Z,100916.52
2018-12-11T10:21:47.248Z,100916.06
2018-12-11T10:24:21.999Z,100921.16
2018-12-11T10:26:54.591Z,100914.80
2018-12-11T10:29:27.183Z,100913.01
2018-12-11T10:31:59.734Z,100917.31
2018-12-11T10:34:32.324Z,100914.77
2018-12-11T10:37:04.883Z,100919.39
2018-12-11T10:39:37.522Z,100925.67
2018-12-11T10:42:10.054Z,100921.00
2018-12-11T10:44:43.038Z,100916.38
2018-12-11T10:47:15.599Z,100917.19
2018-12-11T10:49:48.162Z,100921.83
2018-12-11T10:52:20.693Z,100926.92
2018-12-11T10:54:53.330Z,100929.81
2018-12-11T10:57:25.887Z,100931.97
2018-12-11T10:59:58.601Z,100930.23
2018-12-11T11:02:31.139Z,100930.27
2018-12-11T11:05:03.894Z,100932.84
2018-12-11T11:07:36.757Z,100929.06
2018-12-11T11:10:09.460Z,100932.03
2018-12-11T11:12:42.004Z,100937.97
2018-12-11T11:15:14.571Z,100940.95
2018-12-11T11:17:47.091Z,100940.55
2018-12-11T11:20:19.752Z,100949.00
2018-12-11T11:22:52.285Z,100948.56
2018-12-11T11:25:24.926Z,100948.55
2018-12-11T11:27:57.461Z,100953.62
2018-12-11T11:30:30.113Z,100947.27
2018-12-11T11:33:02.654Z,100950.63
2018-12-11T11:35:35.316Z,100954.89
2018-12-11T11:38:07.877Z,100948.87
2018-12-11T11:40:40.475Z,100962.91
2018-12-11T11:43:13.019Z,100965.88
2018-12-11T11:45:45.587Z,100964.69
2018-12-11T11:48:18.123Z,100957.84
2018-12-11T11:50:50.783Z,100964.59
2018-12-11T11:53:23.311Z,100972.67
2018-12-11T11:55:55.898Z,100967.60
2018-12-11T11:58:28.432Z,100973.09
2018-12-11T12:01:01.208Z,100970.08
2018-12-11T12:03:33.754Z,100973.38
2018-12-11T12:06:06.331Z,100976.80
2018-12-11T12:08:38.865Z,100978.95
2018-12-11T12:11:11.507Z,100982.76
2018-12-11T12:13:44.063Z,100981.01
2018-12-11T12:16:16.625Z,100981.93
2018-12-11T12:18:49.218Z,100979.37
2018-12-11T12:21:21.848Z,100987.81
2018-12-11T12:23:54.389Z,100992.08
2018-12-11T12:26:28.396Z,100989.98
2018-12-11T12:29:01.164Z,100992.59
2018-12-11T12:31:33.996Z,100990.05
2018-12-11T12:34:06.542Z,100995.55
2018-12-11T12:36:39.127Z,100999.34
2018-12-11T12:39:11.690Z,101003.98
2018-12-11T12:41:44.258Z,101012.08
2018-12-11T12:44:16.839Z,101008.27
2018-12-11T12:46:49.954Z,101011.66
2018-12-11T12:49:22.613Z,101008.27
2018-12-11T12:51:55.187Z,101011.23
2018-12-11T12:54:27.752Z,101000.20
2018-12-11T12:57:00.459Z,101008.28
2018-12-11T12:59:33.039Z,101011.27
2018-12-11T13:02:05.845Z,101007.03
2018-12-11T13:04:38.685Z,101013.02
2018-12-11T13:07:11.554Z,101009.19
2018-12-11T13:09:44.199Z,101018.11
2018-12-11T13:12:17.030Z,101014.27
2018-12-11T13:14:49.561Z,101011.74
2018-12-11T13:17:22.161Z,101017.23
2018-12-11T13:19:54.742Z,101018.49
2018-12-11T13:22:27.383Z,101018.05
2018-12-11T13:24:59.958Z,101029.06
2018-12-11T13:27:32.545Z,101027.36
2018-12-11T13:30:05.300Z,101028.21
2018-12-11T13:32:37.955Z,101034.13
2018-12-11T13:35:10.577Z,101032.48
2018-12-11T13:37:43.351Z,101033.32
2018-12-11T13:40:15.909Z,101042.64
2018-12-11T13:42:48.511Z,101044.31
2018-12-11T13:45:21.134Z,101040.90
2018-12-11T13:47:53.737Z,101048.14
2018-12-11T13:53:05.294Z,101049.86
2018-12-11T13:55:37.941Z,101052.80
2018-12-11T13:58:10.703Z,101060.87
2018-12-11T14:00:43.258Z,101061.33
2018-12-11T14:03:16.319Z,101060.47
2018-12-11T14:05:48.889Z,101068.12
2018-12-11T14:08:21.606Z,101068.59
2018-12-11T14:10:54.214Z,101069.44
2018-12-11T14:13:26.873Z,101072.85
2018-12-11T14:15:59.431Z,101079.62
2018-12-11T14:18:32.037Z,101080.88
2018-12-11T14:21:04.754Z,101093.63
2018-12-11T14:23:37.468Z,101090.20
2018-12-11T14:26:10.215Z,101091.47
2018-12-11T14:28:43.025Z,101091.90
2018-12-11T14:31:15.590Z,101090.64
2018-12-11T14:33:48.189Z,101091.92
2018-12-11T14:36:20.714Z,101089.80
2018-12-11T14:38:53.394Z,101096.17
2018-12-11T14:41:26.138Z,101100.84
2018-12-11T14:43:58.798Z,101095.33
2018-12-11T14:46:31.356Z,101102.55
2018-12-11T14:49:03.972Z,101104.67
2018-12-11T14:51:36.701Z,101113.55
2018-12-11T14:54:09.407Z,101114.83
2018-12-11T14:56:42.076Z,101110.16
2018-12-11T14:59:15.233Z,101105.92
2018-12-11T15:01:48.143Z,101104.67
2018-12-11T15:04:20.735Z,101108.05
2018-12-11T15:06:53.407Z,101106.80
2018-12-11T15:09:31.632Z,101107.21
2018-12-11T15:12:04.408Z,101104.69
2018-12-11T15:14:37.017Z,101100.42
2018-12-11T15:17:09.633Z,101118.24
2018-12-11T15:19:42.247Z,101111.04
2018-12-11T15:22:14.823Z,101114.85
2018-12-11T15:24:47.445Z,101117.40
2018-12-11T15:27:20.096Z,101114.44
2018-12-11T15:29:53.283Z,101114.87
2018-12-11T15:32:26.168Z,101114.84
2018-12-11T15:34:58.940Z,101116.55
2018-12-11T15:37:31.499Z,101111.89
2018-12-11T15:40:05.766Z,101111.89
2018-12-11T15:42:38.597Z,101116.55
2018-12-11T15:45:11.696Z,101117.40
2018-12-11T15:47:44.230Z,101105.97
2018-12-11T15:50:17.565Z,101116.99
2018-12-11T15:52:50.154Z,101110.63
2018-12-11T15:55:23.265Z,101118.25
2018-12-11T15:57:56.019Z,101120.80
2018-12-11T16:00:29.068Z,101114.87
2018-12-11T16:03:02.075Z,101126.31
2018-12-11T16:05:35.048Z,101125.88
2018-12-11T16:08:07.707Z,101130.13
2018-12-11T16:10:40.302Z,101121.64
2018-12-11T16:13:12.874Z,101113.60
2018-12-11T16:15:45.833Z,101130.56
2018-12-11T16:18:18.394Z,101134.34
2018-12-11T16:20:51.031Z,101136.06
2018-12-11T16:23:23.569Z,101114.87
2018-12-11T16:25:56.235Z,101132.66
2018-12-11T16:28:29.025Z,101121.66
2018-12-11T16:31:01.964Z,101134.80
2018-12-11T16:33:34.626Z,101130.97
2018-12-11T16:36:07.208Z,101129.27
2018-12-11T16:38:39.928Z,101129.27
2018-12-11T16:41:12.661Z,101128.84
2018-12-11T16:43:45.208Z,101144.95
2018-12-11T16:46:17.785Z,101152.16
2018-12-11T16:48:50.350Z,101149.59
2018-12-11T16:51:23.024Z,101152.14
2018-12-11T16:53:55.953Z,101158.08
2018-12-11T16:56:28.615Z,101147.91
2018-12-11T16:59:01.368Z,101160.19
2018-12-11T17:01:34.072Z,101152.55
2018-12-11T17:04:06.700Z,101164.41
2018-12-11T17:06:39.331Z,101176.23
2018-12-11T17:09:13.962Z,101172.02
2018-12-11T17:11:46.535Z,101164.80
2018-12-11T17:14:19.126Z,101175.84
2018-12-11T17:16:51.797Z,101179.59
2018-12-11T17:19:24.368Z,101189.80
2018-12-11T17:21:57.992Z,101196.19
2018-12-11T17:24:30.542Z,101191.53
2018-12-11T17:27:03.231Z,101187.71
2018-12-11T17:29:36.098Z,101194.91
2018-12-11T17:32:08.744Z,101200.39
2018-12-11T17:34:41.447Z,101204.22
2018-12-11T17:37:14.102Z,101207.61
2018-12-11T17:39:46.686Z,101204.61
2018-12-11T17:42:19.339Z,101209.69
2018-12-11T17:44:51.884Z,101219.47
2018-12-11T17:47:24.445Z,101217.77
2018-12-11T17:49:56.983Z,101221.13
2018-12-11T17:52:29.609Z,101220.68
2018-12-11T17:55:02.155Z,101216.03
2018-12-11T17:57:34.719Z,101221.98
2018-12-11T18:00:08.753Z,101218.13
2018-12-11T18:02:41.666Z,101231.27
2018-12-11T18:05:14.204Z,101227.03
2018-12-11T18:07:46.754Z,101237.19
2018-12-11T18:10:19.315Z,101235.91
2018-12-11T18:12:51.884Z,101233.77
2018-12-11T18:15:24.511Z,101236.78
2018-12-11T18:17:57.288Z,101240.98
2018-12-11T18:20:29.910Z,101240.98
2018-12-11T18:23:02.688Z,101243.08
2018-12-11T18:25:35.330Z,101250.70
2018-12-11T18:28:08.112Z,101250.28
2018-12-11T18:30:40.781Z,101245.14
2018-12-11T18:33:13.343Z,101250.23
2018-12-11T18:35:45.892Z,101242.66
2018-12-11T18:38:18.461Z,101249.05
2018-12-11T18:40:51.477Z,101256.66
2018-12-11T18:43:24.208Z,101261.30
2018-12-11T18:45:56.825Z,101265.13
2018-12-11T18:48:29.491Z,101265.14
2018-12-11T18:51:02.061Z,101263.86
2018-12-11T18:53:34.624Z,101270.21
2018-12-11T18:56:07.162Z,101266.81
2018-12-11T18:58:39.756Z,101268.91
2018-12-11T19:01:13.383Z,101268.45
2018-12-11T19:03:49.234Z,101261.23
2018-12-11T19:06:20.882Z,101264.68
2018-12-11T19:08:53.567Z,101265.53
2018-12-11T19:11:26.115Z,101267.25
2018-12-11T19:13:58.737Z,101268.94
2018-12-11T19:16:31.271Z,101272.25
2018-12-11T19:19:03.964Z,101274.83
2018-12-11T19:21:36.549Z,101273.53
2018-12-11T19:24:09.157Z,101283.69
2018-12-11T19:26:41.827Z,101282.03
2018-12-11T19:29:14.407Z,101282.42
2018-12-11T19:31:47.046Z,101273.53
2018-12-11T19:34:19.851Z,101278.58
2018-12-11T19:36:52.398Z,101278.98
2018-12-11T19:39:24.959Z,101281.58
2018-12-11T19:41:57.495Z,101291.73
2018-12-11T19:44:30.139Z,101287.09
2018-12-11T19:47:02.673Z,101296.39
2018-12-11T19:49:35.363Z,101296.77
2018-12-11T19:52:08.124Z,101291.70
2018-12-11T19:54:40.732Z,101288.28
2018-12-11T19:57:13.354Z,101285.77
2018-12-11T19:59:46.010Z,101282.72
2018-12-11T20:02:18.854Z,101294.14
2018-12-11T20:04:51.577Z,101296.27
2018-12-11T20:07:24.203Z,101297.11
2018-12-11T20:10:02.576Z,101291.98
2018-12-11T20:12:35.193Z,101298.73
2018-12-11T20:15:07.841Z,101302.52
2018-12-11T20:17:40.759Z,101294.84
2018-12-11T20:20:23.452Z,101304.16
2018-12-11T20:22:56.027Z,101306.27
2018-12-11T20:25:28.659Z,101308.76
2018-12-11T20:28:01.259Z,101310.42
2018-12-11T20:30:34.081Z,101313.77
2018-12-11T20:33:06.625Z,101312.87
2018-12-11T20:35:39.233Z,101325.92
2018-12-11T20:38:11.949Z,101321.66
2018-12-11T20:40:44.572Z,101325.85
2018-12-11T20:43:17.469Z,101322.86
2018-12-11T20:45:50.906Z,101327.91
2018-12-11T20:48:23.592Z,101331.28
2018-12-11T20:50:56.311Z,101328.71
2018-12-11T20:53:29.128Z,101326.14
2018-12-11T20:56:02.035Z,101336.22
2018-12-11T20:58:34.637Z,101332.80
2018-12-11T21:01:07.417Z,101338.67
2018-12-11T21:03:40.210Z,101342.02
2018-12-11T21:06:12.889Z,101341.17
2018-12-11T21:08:45.659Z,101343.67
2018-12-11T21:11:18.247Z,101340.72
2018-12-11T21:13:50.949Z,101347.48
2018-12-11T21:16:23.531Z,101346.59
2018-12-11T21:18:56.360Z,101346.59
2018-12-11T21:21:29.164Z,101349.55
2018-12-11T21:24:02.433Z,101354.23
2018-12-11T21:26:35.012Z,101358.05
2018-12-11T21:29:07.559Z,101350.05
2018-12-11T21:31:40.223Z,101351.28
2018-12-11T21:34:12.800Z,101352.59
2018-12-11T21:36:45.450Z,101360.20
2018-12-11T21:39:18.015Z,101359.39
2018-12-11T21:41:51.493Z,101366.53
2018-12-11T21:44:24.030Z,101361.92
2018-12-11T21:46:56.589Z,101361.92
2018-12-11T21:49:29.125Z,101369.53
2018-12-11T21:52:01.684Z,101364.08
2018-12-11T21:54:34.231Z,101372.98
2018-12-11T21:57:06.899Z,101366.23
2018-12-11T21:59:39.449Z,101374.76
2018-12-11T22:02:12.031Z,101373.52
2018-12-11T22:04:44.569Z,101376.91
2018-12-11T22:07:17.142Z,101380.71
2018-12-11T22:09:50.040Z,101374.38
2018-12-11T22:12:23.354Z,101370.14
2018-12-11T22:14:55.909Z,101380.75
2018-12-11T22:17:28.480Z,101378.67
2018-12-11T22:20:01.011Z,101374.94
2018-12-11T22:22:33.561Z,101377.89
2018-12-11T22:25:06.164Z,101382.55
2018-12-11T22:27:38.863Z,101385.12
2018-12-11T22:30:11.397Z,101387.70
2018-12-11T22:32:43.966Z,101381.41
2018-12-11T22:35:16.506Z,101386.95
2018-12-11T22:37:49.154Z,101387.38
2018-12-11T22:40:21.722Z,101384.86
2018-12-11T22:42:54.356Z,101389.55
2018-12-11T22:45:26.907Z,101394.66
2018-12-11T22:47:59.458Z,101395.96
2018-12-11T22:50:32.087Z,101398.92
2018-12-11T22:53:04.641Z,101395.50
2018-12-11T22:55:37.204Z,101405.27
2018-12-11T22:58:09.854Z,101406.60
2018-12-11T23:00:43.889Z,101409.59
2018-12-11T23:03:16.507Z,101411.74
2018-12-11T23:05:49.093Z,101418.09
2018-12-11T23:08:21.746Z,101417.24
2018-12-11T23:10:54.325Z,101422.74
2018-12-11T23:13:27.069Z,101414.19
2018-12-11T23:15:59.762Z,101416.76
2018-12-11T23:18:32.322Z,101418.45
2018-12-11T23:21:04.879Z,101418.00
2018-12-11T23:23:37.809Z,101417.92
2018-12-11T23:26:10.532Z,101427.98
2018-12-11T23:28:43.109Z,101431.78
2018-12-11T23:31:15.643Z,101431.36
2018-12-11T23:33:48.277Z,101427.06
2018-12-11T23:36:20.800Z,101424.52
2018-12-11T23:38:53.442Z,101424.52
2018-12-11T23:41:25.990Z,101423.18
2018-12-11T23:43:58.522Z,101427.34
2018-12-11T23:46:31.070Z,101433.25
2018-12-11T23:49:03.747Z,101434.56
2018-12-11T23:51:36.294Z,101433.33
2018-12-11T23:54:08.976Z,101436.33
2018-12-11T23:56:41.513Z,101430.83
2018-12-11T23:59:14.103Z,101432.52
